createdAt,value
2019-02-06T00:02:18.304Z,32.23
2019-02-06T00:06:39.248Z,32.60
2019-02-06T00:11:00.089Z,28.87
2019-02-06T00:15:21.431Z,31.17
2019-02-06T00:19:42.273Z,36.33
2019-02-06T00:24:03.099Z,41.03
2019-02-06T00:28:23.885Z,43.47
2019-02-06T00:32:45.058Z,44.03
2019-02-06T00:36:46.244Z,46.90
2019-02-06T00:41:07.170Z,41.87
2019-02-06T00:45:22.127Z,48.40
2019-02-06T00:49:36.285Z,44.13
2019-02-06T00:53:51.029Z,39.47
2019-02-06T00:58:05.409Z,38.83
2019-02-06T01:02:20.154Z,39.73
2019-02-06T01:06:21.325Z,38.70
2019-02-06T01:10:42.189Z,35.77
2019-02-06T01:15:03.316Z,42.57
2019-02-06T01:19:24.244Z,40.57
2019-02-06T01:23:25.371Z,36.50
2019-02-06T01:27:46.268Z,36.47
2019-02-06T01:32:07.388Z,39.27
2019-02-06T01:36:08.388Z,37.97
2019-02-06T01:40:29.149Z,31.97
2019-02-06T01:44:43.846Z,32.97
2019-02-06T01:48:58.493Z,32.03
2019-02-06T01:53:12.825Z,32.80
2019-02-06T01:57:27.394Z,37.00
2019-02-06T02:01:42.179Z,37.60
2019-02-06T02:06:02.423Z,37.90
2019-02-06T02:10:12.618Z,33.40
2019-02-06T02:14:26.976Z,32.97
2019-02-06T02:18:41.378Z,36.17
2019-02-06T02:22:42.686Z,33.40
2019-02-06T02:27:03.617Z,32.40
2019-02-06T02:31:24.972Z,30.93
2019-02-06T02:35:25.843Z,30.27
2019-02-06T02:39:46.548Z,36.53
2019-02-06T02:43:47.486Z,31.40
2019-02-06T02:48:08.527Z,36.47
2019-02-06T02:52:29.382Z,33.17
2019-02-06T02:56:30.587Z,28.33
2019-02-06T03:01:11.278Z,30.53
2019-02-06T03:05:33.598Z,27.67
2019-02-06T03:09:34.713Z,27.40
2019-02-06T03:13:55.462Z,22.27
2019-02-06T03:18:16.213Z,25.30
2019-02-06T03:22:36.953Z,23.67
2019-02-06T03:26:57.689Z,22.07
2019-02-06T03:31:18.632Z,23.57
2019-02-06T03:35:39.892Z,22.37
2019-02-06T03:39:40.958Z,25.23
2019-02-06T03:43:54.736Z,17.70
2019-02-06T03:48:09.238Z,20.27
2019-02-06T03:52:10.210Z,17.13
2019-02-06T03:56:11.194Z,25.07
2019-02-06T04:00:32.042Z,14.70
2019-02-06T04:04:52.981Z,21.47
2019-02-06T04:09:13.920Z,19.50
2019-02-06T04:13:34.683Z,20.20
2019-02-06T04:17:55.647Z,20.40
2019-02-06T04:22:16.531Z,24.97
2019-02-06T04:26:37.579Z,21.60
2019-02-06T04:30:58.329Z,22.53
2019-02-06T04:35:19.160Z,28.87
2019-02-06T04:39:40.006Z,22.87
2019-02-06T04:43:54.061Z,19.03
2019-02-06T04:48:08.885Z,22.77
2019-02-06T04:52:09.895Z,23.87
2019-02-06T04:56:30.832Z,24.70
2019-02-06T05:00:51.879Z,23.03
2019-02-06T05:05:12.774Z,28.43
2019-02-06T05:09:13.712Z,24.30
2019-02-06T05:13:34.521Z,26.30
2019-02-06T05:17:35.447Z,27.93
2019-02-06T05:21:36.427Z,26.47
2019-02-06T05:25:57.197Z,28.20
2019-02-06T05:30:17.916Z,28.77
2019-02-06T05:34:38.873Z,38.27
2019-02-06T05:38:59.630Z,33.83
2019-02-06T05:43:20.380Z,35.17
2019-02-06T05:47:34.723Z,34.03
2019-02-06T05:51:35.641Z,32.00
2019-02-06T05:55:56.376Z,34.63
2019-02-06T06:04:27.189Z,35.33
2019-02-06T06:08:28.066Z,35.67
2019-02-06T06:12:29.024Z,37.50
2019-02-06T06:16:49.756Z,38.43
2019-02-06T06:21:10.614Z,37.37
2019-02-06T06:25:31.452Z,33.97
2019-02-06T06:29:52.376Z,37.67
2019-02-06T06:33:53.653Z,39.67
2019-02-06T06:38:14.500Z,38.87
2019-02-06T06:42:35.443Z,39.33
2019-02-06T06:46:50.395Z,44.40
2019-02-06T06:51:05.011Z,36.67
2019-02-06T06:55:18.902Z,35.47
2019-02-06T06:59:33.532Z,38.73
2019-02-06T07:03:47.970Z,40.40
2019-02-06T07:08:09.624Z,36.43
2019-02-06T07:12:18.140Z,46.53
2019-02-06T07:16:32.900Z,35.63
2019-02-06T07:20:47.369Z,37.83
2019-02-06T07:24:48.457Z,42.07
2019-02-06T07:29:09.304Z,45.77
2019-02-06T07:33:30.234Z,38.43
2019-02-06T07:37:51.167Z,38.67
2019-02-06T07:42:12.410Z,34.93
2019-02-06T07:46:26.674Z,32.60
2019-02-06T07:50:41.268Z,37.27
2019-02-06T07:54:55.760Z,33.33
2019-02-06T07:59:10.065Z,39.63
2019-02-06T08:03:24.855Z,39.77
2019-02-06T08:07:39.053Z,44.17
2019-02-06T08:11:53.646Z,40.47
2019-02-06T08:16:08.236Z,36.10
2019-02-06T08:20:22.781Z,36.83
2019-02-06T08:24:37.504Z,41.23
2019-02-06T08:28:51.449Z,37.97
2019-02-06T08:33:05.887Z,40.60
2019-02-06T08:37:20.524Z,32.03
2019-02-06T08:41:35.075Z,37.33
2019-02-06T08:45:49.615Z,32.93
2019-02-06T08:50:04.146Z,38.10
2019-02-06T08:54:20.384Z,44.23
2019-02-06T08:58:35.285Z,40.83
2019-02-06T09:02:49.903Z,34.60
2019-02-06T09:06:50.800Z,34.40
2019-02-06T09:11:11.550Z,36.53
2019-02-06T09:15:32.378Z,38.83
2019-02-06T09:19:53.210Z,43.07
2019-02-06T09:24:13.947Z,37.93
2019-02-06T09:28:37.332Z,36.27
2019-02-06T09:32:57.709Z,33.30
2019-02-06T09:36:59.018Z,36.07
2019-02-06T09:41:19.943Z,37.00
2019-02-06T09:45:34.474Z,36.77
2019-02-06T09:49:49.876Z,36.70
2019-02-06T09:54:04.839Z,39.50
2019-02-06T09:58:19.490Z,37.50
2019-02-06T10:02:34.332Z,37.80
2019-02-06T10:06:49.079Z,39.50
2019-02-06T10:11:03.549Z,43.43
2019-02-06T10:15:18.057Z,38.00
2019-02-06T10:19:32.119Z,44.03
2019-02-06T10:23:46.695Z,41.53
2019-02-06T10:28:01.263Z,39.63
2019-02-06T10:32:15.699Z,35.97
2019-02-06T10:36:29.725Z,36.67
2019-02-06T10:40:30.646Z,39.50
2019-02-06T10:44:44.983Z,39.77
2019-02-06T10:48:59.516Z,40.80
2019-02-06T10:53:13.900Z,42.47
2019-02-06T10:57:28.558Z,41.37
2019-02-06T11:01:43.218Z,43.90
2019-02-06T11:05:57.833Z,62.53
2019-02-06T11:10:12.528Z,53.63
2019-02-06T11:14:27.123Z,42.00
2019-02-06T11:18:28.044Z,37.07
2019-02-06T11:22:48.787Z,41.67
2019-02-06T11:27:09.628Z,44.37
2019-02-06T11:31:30.569Z,44.97
2019-02-06T11:35:51.624Z,42.80
2019-02-06T11:39:57.891Z,47.07
2019-02-06T11:44:15.291Z,42.20
2019-02-06T11:48:36.200Z,44.30
2019-02-06T11:52:57.087Z,43.70
2019-02-06T11:57:17.863Z,46.27
2019-02-06T12:01:39.527Z,44.60
2019-02-06T12:06:20.253Z,46.90
2019-02-06T12:10:41.213Z,50.93
2019-02-06T12:15:23.828Z,40.97
2019-02-06T12:19:44.705Z,45.27
2019-02-06T12:24:05.628Z,45.50
2019-02-06T12:28:06.629Z,40.87
2019-02-06T12:32:27.475Z,41.33
2019-02-06T12:41:10.712Z,44.23
2019-02-06T12:45:25.127Z,40.37
2019-02-06T12:49:39.659Z,41.50
2019-02-06T12:53:54.309Z,45.43
2019-02-06T12:58:10.973Z,45.30
2019-02-06T13:02:25.323Z,43.70
2019-02-06T13:06:40.057Z,47.23
2019-02-06T13:10:54.724Z,42.30
2019-02-06T13:15:09.218Z,48.70
2019-02-06T13:19:26.879Z,39.70
2019-02-06T13:23:40.783Z,42.90
2019-02-06T13:27:55.324Z,40.33
2019-02-06T13:32:10.714Z,41.10
2019-02-06T13:36:25.792Z,45.60
2019-02-06T13:40:45.762Z,48.03
2019-02-06T13:44:56.946Z,43.97
2019-02-06T13:49:11.943Z,42.03
2019-02-06T13:53:28.326Z,42.00
2019-02-06T13:57:42.238Z,42.93
2019-02-06T14:01:57.056Z,41.20
2019-02-06T14:06:11.794Z,37.60
2019-02-06T14:10:26.195Z,44.47
2019-02-06T14:14:40.901Z,36.30
2019-02-06T14:18:55.614Z,35.53
2019-02-06T14:23:10.255Z,37.80
2019-02-06T14:27:24.791Z,40.47
2019-02-06T14:31:39.278Z,37.97
2019-02-06T14:35:53.648Z,40.47
2019-02-06T14:40:10.998Z,38.97
2019-02-06T14:44:25.153Z,35.87
2019-02-06T14:48:39.693Z,37.13
2019-02-06T14:52:53.853Z,37.30
2019-02-06T14:57:08.437Z,39.77
2019-02-06T15:01:23.058Z,51.33
2019-02-06T15:05:37.588Z,37.63
2019-02-06T15:09:52.082Z,36.47
2019-02-06T15:14:32.957Z,39.50
2019-02-06T15:19:13.667Z,43.73
2019-02-06T15:23:56.192Z,42.97
2019-02-06T15:28:37.178Z,44.97
2019-02-06T15:33:17.816Z,42.70
2019-02-06T15:37:58.442Z,44.00
2019-02-06T15:42:43.322Z,38.97
2019-02-06T15:47:05.601Z,39.10
2019-02-06T15:51:46.297Z,40.57
2019-02-06T15:56:27.013Z,45.67
2019-02-06T16:01:07.787Z,36.20
2019-02-06T16:05:50.447Z,39.30
2019-02-06T16:10:33.297Z,37.33
2019-02-06T16:15:15.798Z,38.60
2019-02-06T16:20:05.679Z,44.43
2019-02-06T16:29:24.048Z,46.30
2019-02-06T16:34:04.997Z,40.73
2019-02-06T16:38:47.633Z,40.87
2019-02-06T16:43:28.323Z,40.37
2019-02-06T16:47:45.600Z,39.73
2019-02-06T16:52:00.291Z,43.87
2019-02-06T16:56:42.882Z,45.00
2019-02-06T17:01:25.363Z,47.50
2019-02-06T17:05:48.382Z,45.60
2019-02-06T17:10:30.980Z,54.63
2019-02-06T17:15:15.496Z,48.10
2019-02-06T17:19:58.169Z,46.23
2019-02-06T17:24:38.870Z,44.83
2019-02-06T17:29:19.499Z,36.93
2019-02-06T17:34:00.085Z,46.60
2019-02-06T17:38:40.686Z,39.67
2019-02-06T17:43:23.422Z,35.23
2019-02-06T17:47:46.137Z,42.07
2019-02-06T17:52:28.615Z,40.98
2019-02-06T17:56:49.489Z,39.27
2019-02-06T18:01:30.297Z,42.30
2019-02-06T18:05:51.126Z,38.00
2019-02-06T18:10:33.669Z,32.77
2019-02-06T18:14:54.521Z,30.70
2019-02-06T18:19:15.265Z,33.20
2019-02-06T18:23:38.880Z,33.00
2019-02-06T18:27:59.891Z,30.77
2019-02-06T18:32:20.850Z,31.57
2019-02-06T18:36:41.891Z,30.50
2019-02-06T18:41:02.939Z,33.33
2019-02-06T18:45:24.134Z,39.07
2019-02-06T18:49:45.151Z,39.53
2019-02-06T18:54:06.105Z,37.80
2019-02-06T18:58:27.612Z,35.20
2019-02-06T19:02:48.522Z,37.90
2019-02-06T19:07:09.510Z,43.03
2019-02-06T19:11:30.679Z,40.47
2019-02-06T19:15:56.454Z,52.38
2019-02-06T19:20:15.357Z,47.20
2019-02-06T19:24:36.313Z,41.57
2019-02-06T19:28:57.552Z,39.47
2019-02-06T19:32:58.656Z,45.23
2019-02-06T19:37:19.544Z,54.20
2019-02-06T19:41:40.737Z,46.70
2019-02-06T19:45:55.035Z,49.77
2019-02-06T19:50:09.219Z,48.33
2019-02-06T19:54:23.925Z,49.10
2019-02-06T19:58:41.093Z,49.57
2019-02-06T20:02:54.270Z,50.87
2019-02-06T20:07:08.934Z,50.73
2019-02-06T20:11:23.119Z,51.13
2019-02-06T20:15:37.731Z,51.60
2019-02-06T20:19:38.788Z,49.73
2019-02-06T20:23:59.747Z,48.47
2019-02-06T20:28:22.570Z,46.10
2019-02-06T20:32:43.518Z,58.53
2019-02-06T20:37:04.500Z,51.13
2019-02-06T20:41:25.459Z,44.90
2019-02-06T20:45:26.713Z,49.53
2019-02-06T20:49:47.613Z,48.80
2019-02-06T20:58:18.724Z,47.27
2019-02-06T21:02:39.503Z,53.27
2019-02-06T21:07:00.334Z,46.93
2019-02-06T21:11:21.128Z,45.70
2019-02-06T21:15:42.265Z,48.63
2019-02-06T21:20:24.877Z,53.87
2019-02-06T21:24:45.815Z,45.83
2019-02-06T21:29:06.769Z,47.10
2019-02-06T21:33:27.649Z,48.10
2019-02-06T21:38:01.249Z,52.40
2019-02-06T21:42:11.305Z,49.43
2019-02-06T21:46:26.192Z,53.23
2019-02-06T21:50:40.308Z,43.53
2019-02-06T21:54:54.759Z,56.07
2019-02-06T21:59:11.677Z,47.00
2019-02-06T22:03:25.825Z,46.20
2019-02-06T22:07:40.599Z,51.63
2019-02-06T22:11:57.892Z,49.80
2019-02-06T22:16:11.813Z,49.37
2019-02-06T22:25:01.795Z,45.13
2019-02-06T22:29:22.989Z,46.60
2019-02-06T22:33:44.006Z,47.23
2019-02-06T22:38:05.031Z,49.13
2019-02-06T22:42:26.043Z,51.40
2019-02-06T22:46:40.134Z,56.57
2019-02-06T22:50:55.454Z,55.13
2019-02-06T22:55:12.034Z,46.33
2019-02-06T22:59:26.089Z,51.03
2019-02-06T23:04:08.764Z,61.27
2019-02-06T23:08:29.732Z,57.63
2019-02-06T23:17:13.467Z,54.67
2019-02-06T23:21:14.588Z,52.43
2019-02-06T23:25:35.419Z,58.03
2019-02-06T23:29:56.267Z,52.27
2019-02-06T23:34:18.069Z,53.33
2019-02-06T23:38:39.062Z,56.97
2019-02-06T23:43:00.015Z,54.43
2019-02-06T23:47:01.022Z,54.20
2019-02-06T23:51:21.878Z,56.27
2019-02-06T23:55:42.856Z,58.20
